createdAt,value
2023-03-24T00:00:13.743Z,11.13
2023-03-24T00:05:54.894Z,11.35
2023-03-24T00:13:49.599Z,11.88
2023-03-24T00:16:39.013Z,11.38
2023-03-24T00:19:15.358Z,10.80
2023-03-24T00:21:43.886Z,16.38
2023-03-24T00:24:14.649Z,10.05
2023-03-24T00:26:42.345Z,12.48
2023-03-24T00:29:11.847Z,10.60
2023-03-24T00:31:40.249Z,10.02
2023-03-24T00:34:09.031Z,11.35
2023-03-24T00:36:39.564Z,8.50
2023-03-24T00:39:06.903Z,10.18
2023-03-24T00:41:34.911Z,11.02
2023-03-24T00:44:09.922Z,8.70
2023-03-24T00:46:39.297Z,9.02
2023-03-24T00:49:08.298Z,10.52
2023-03-24T00:51:42.355Z,9.45
2023-03-24T00:54:39.738Z,11.43
2023-03-24T00:59:57.677Z,7.25
2023-03-24T01:02:41.607Z,8.95
2023-03-24T01:19:55.772Z,12.63
2023-03-24T01:22:27.360Z,9.98
2023-03-24T01:24:54.793Z,7.78
2023-03-24T01:27:22.202Z,7.72
2023-03-24T01:29:49.528Z,6.95
2023-03-24T01:32:16.868Z,9.75
2023-03-24T01:34:44.172Z,8.73
2023-03-24T01:37:11.486Z,8.65
2023-03-24T01:39:39.054Z,6.72
2023-03-24T01:42:06.589Z,8.45
2023-03-24T01:44:38.191Z,6.80
2023-03-24T01:47:08.961Z,7.25
2023-03-24T01:49:39.697Z,8.35
2023-03-24T01:52:18.036Z,9.88
2023-03-24T01:54:53.038Z,8.75
2023-03-24T01:57:41.130Z,9.73
2023-03-24T02:00:11.664Z,8.02
2023-03-24T02:02:43.363Z,8.02
2023-03-24T02:05:13.629Z,6.88
2023-03-24T02:07:49.930Z,4.97
2023-03-24T02:10:19.138Z,5.85
2023-03-24T02:12:46.787Z,6.57
2023-03-24T02:15:17.748Z,7.63
2023-03-24T02:18:08.009Z,11.30
2023-03-24T02:20:44.805Z,10.52
2023-03-24T02:24:00.464Z,7.53
2023-03-24T02:26:48.537Z,9.93
2023-03-24T02:29:53.160Z,9.63
2023-03-24T02:32:45.532Z,12.82
2023-03-24T02:35:37.588Z,13.40
2023-03-24T02:38:34.562Z,17.50
2023-03-24T02:41:10.948Z,14.05
2023-03-24T02:44:19.100Z,11.88
2023-03-24T02:46:50.567Z,15.55
2023-03-24T02:49:28.750Z,10.93
2023-03-24T02:52:05.405Z,11.98
2023-03-24T02:54:55.860Z,9.77
2023-03-24T02:57:31.273Z,10.23
2023-03-24T03:00:02.383Z,9.07
2023-03-24T03:02:33.492Z,14.45
2023-03-24T03:05:13.982Z,12.20
2023-03-24T03:07:42.470Z,11.93
2023-03-24T03:10:22.086Z,14.05
2023-03-24T03:12:52.728Z,14.63
2023-03-24T03:15:24.183Z,15.02
2023-03-24T03:18:06.223Z,16.65
2023-03-24T03:20:38.350Z,15.60
2023-03-24T03:23:13.585Z,18.40
2023-03-24T03:25:51.224Z,21.25
2023-03-24T03:28:23.560Z,15.88
2023-03-24T03:30:57.168Z,22.38
2023-03-24T03:33:31.348Z,22.27
2023-03-24T03:36:08.224Z,23.20
2023-03-24T03:38:49.620Z,21.85
2023-03-24T03:41:18.411Z,24.52
2023-03-24T03:43:47.099Z,24.17
2023-03-24T03:46:14.941Z,29.35
2023-03-24T03:48:42.579Z,25.48
2023-03-24T03:51:14.147Z,26.83
2023-03-24T03:53:55.419Z,28.13
2023-03-24T03:59:36.054Z,24.45
2023-03-24T04:02:32.135Z,25.63
2023-03-24T04:05:44.336Z,25.63
2023-03-24T04:08:27.697Z,28.50
2023-03-24T04:11:14.055Z,27.45
2023-03-24T04:14:27.340Z,29.50
2023-03-24T04:16:57.758Z,27.75
2023-03-24T04:19:48.269Z,33.20
2023-03-24T04:22:26.005Z,31.38
2023-03-24T04:25:31.348Z,32.60
2023-03-24T04:28:07.406Z,32.33
2023-03-24T04:31:04.790Z,33.28
2023-03-24T04:34:04.645Z,27.30
2023-03-24T04:39:50.682Z,32.22
2023-03-24T04:42:32.869Z,27.25
2023-03-24T04:45:01.270Z,33.63
2023-03-24T04:47:34.206Z,28.58
2023-03-24T04:52:34.381Z,29.00
2023-03-24T04:57:29.070Z,37.25
2023-03-24T04:59:56.804Z,31.67
2023-03-24T05:02:24.134Z,27.42
2023-03-24T05:04:51.502Z,36.08
2023-03-24T05:07:18.878Z,30.52
2023-03-24T05:09:46.426Z,29.08
2023-03-24T05:12:13.859Z,30.23
2023-03-24T05:14:41.184Z,27.30
2023-03-24T05:17:11.294Z,31.10
2023-03-24T05:19:38.901Z,23.92
2023-03-24T05:22:06.462Z,31.42
2023-03-24T05:24:34.855Z,30.02
2023-03-24T05:27:02.192Z,28.77
2023-03-24T05:29:29.512Z,28.52
2023-03-24T05:31:56.853Z,23.75
2023-03-24T05:34:24.170Z,29.20
2023-03-24T05:36:51.498Z,28.85
2023-03-24T05:39:18.991Z,25.13
2023-03-24T05:41:46.552Z,31.48
2023-03-24T05:44:13.910Z,30.75
2023-03-24T05:46:42.586Z,29.52
2023-03-24T05:49:10.464Z,28.58
2023-03-24T05:51:37.929Z,19.73
2023-03-24T05:54:06.146Z,34.30
2023-03-24T05:56:33.778Z,26.65
2023-03-24T05:59:01.173Z,26.75
2023-03-24T06:01:29.038Z,27.55
2023-03-24T06:03:56.615Z,23.33
2023-03-24T06:06:24.069Z,24.48
2023-03-24T06:08:57.069Z,20.70
2023-03-24T06:11:24.397Z,26.85
2023-03-24T06:13:59.134Z,21.52
2023-03-24T06:16:33.846Z,21.90
2023-03-24T06:19:01.216Z,23.65
2023-03-24T06:21:33.203Z,24.77
2023-03-24T06:24:03.197Z,22.98
2023-03-24T06:26:30.916Z,24.55
2023-03-24T06:28:58.990Z,27.75
2023-03-24T06:31:29.744Z,27.23
2023-03-24T06:33:57.694Z,35.50
2023-03-24T06:36:27.932Z,20.77
2023-03-24T06:38:56.337Z,21.23
2023-03-24T06:41:24.573Z,18.95
2023-03-24T06:43:51.909Z,24.63
2023-03-24T06:46:19.298Z,21.83
2023-03-24T06:48:47.038Z,20.85
2023-03-24T06:51:14.270Z,25.85
2023-03-24T06:53:41.613Z,18.90
2023-03-24T06:56:09.084Z,21.25
2023-03-24T06:58:36.749Z,18.02
2023-03-24T07:01:04.101Z,18.15
2023-03-24T07:03:31.695Z,22.05
2023-03-24T07:06:00.745Z,27.67
2023-03-24T07:08:37.330Z,21.60
2023-03-24T07:11:07.065Z,21.35
2023-03-24T07:13:34.765Z,25.05
2023-03-24T07:16:02.278Z,20.90
2023-03-24T07:18:33.618Z,17.90
2023-03-24T07:21:01.443Z,21.77
2023-03-24T07:23:30.340Z,27.55
2023-03-24T07:25:57.811Z,27.00
2023-03-24T07:28:25.412Z,20.75
2023-03-24T07:30:54.941Z,22.95
2023-03-24T07:33:25.030Z,23.52
2023-03-24T07:35:56.355Z,23.50
2023-03-24T07:38:27.820Z,25.13
2023-03-24T07:41:02.647Z,20.70
2023-03-24T07:43:33.923Z,16.50
2023-03-24T07:46:17.748Z,19.80
2023-03-24T07:51:41.104Z,26.38
2023-03-24T07:54:10.241Z,19.98
2023-03-24T07:56:37.676Z,19.60
2023-03-24T07:59:05.044Z,20.73
2023-03-24T08:01:33.166Z,18.40
2023-03-24T08:04:00.740Z,21.05
2023-03-24T08:06:29.547Z,17.98
2023-03-24T08:08:56.994Z,24.95
2023-03-24T08:11:27.644Z,19.58
2023-03-24T08:13:54.892Z,20.98
2023-03-24T08:16:22.688Z,22.50
2023-03-24T08:18:56.920Z,21.02
2023-03-24T08:21:25.457Z,23.58
2023-03-24T08:23:53.123Z,27.55
2023-03-24T08:26:20.480Z,24.15
2023-03-24T08:28:47.879Z,27.40
2023-03-24T08:31:15.264Z,21.80
2023-03-24T08:33:42.780Z,18.05
2023-03-24T08:36:10.198Z,21.65
2023-03-24T08:38:38.923Z,17.80
2023-03-24T08:41:07.202Z,21.40
2023-03-24T08:43:36.812Z,21.45
2023-03-24T08:46:06.813Z,17.17
2023-03-24T08:48:34.940Z,22.88
2023-03-24T08:51:10.223Z,22.00
2023-03-24T08:53:37.555Z,15.05
2023-03-24T08:56:06.737Z,18.35
2023-03-24T08:58:34.412Z,22.58
2023-03-24T09:01:02.814Z,17.25
2023-03-24T09:03:30.954Z,15.25
2023-03-24T09:05:58.953Z,15.55
2023-03-24T09:08:27.713Z,19.38
2023-03-24T09:10:56.523Z,17.85
2023-03-24T09:13:24.463Z,21.70
2023-03-24T09:15:54.579Z,18.08
2023-03-24T09:18:22.592Z,20.00
2023-03-24T09:20:50.711Z,20.65
2023-03-24T09:23:18.424Z,18.90
2023-03-24T09:25:46.340Z,24.48
2023-03-24T09:28:15.033Z,18.30
2023-03-24T09:30:43.960Z,26.25
2023-03-24T09:33:13.836Z,19.58
2023-03-24T09:35:41.606Z,22.35
2023-03-24T09:38:11.577Z,20.08
2023-03-24T09:40:41.624Z,16.70
2023-03-24T09:43:32.812Z,20.85
2023-03-24T09:46:02.695Z,19.05
2023-03-24T09:48:49.842Z,17.88
2023-03-24T09:51:27.498Z,18.02
2023-03-24T09:54:19.048Z,21.23
2023-03-24T09:56:51.325Z,20.45
2023-03-24T10:01:48.371Z,15.48
2023-03-24T10:04:19.342Z,14.30
2023-03-24T10:06:53.451Z,20.48
2023-03-24T10:09:32.842Z,19.17
2023-03-24T10:12:15.432Z,17.35
2023-03-24T10:14:57.963Z,16.20
2023-03-24T10:17:28.333Z,18.05
2023-03-24T10:20:09.944Z,22.58
2023-03-24T10:22:41.323Z,20.38
2023-03-24T10:25:26.817Z,17.13
2023-03-24T10:28:15.486Z,15.98
2023-03-24T10:30:45.366Z,13.68
2023-03-24T10:33:15.020Z,14.30
2023-03-24T10:35:54.548Z,9.63
2023-03-24T10:38:23.281Z,14.80
2023-03-24T10:40:51.146Z,14.75
2023-03-24T10:43:21.332Z,13.55
2023-03-24T10:45:53.098Z,15.25
2023-03-24T10:48:44.583Z,13.43
2023-03-24T10:51:17.014Z,16.25
2023-03-24T10:53:48.553Z,11.73
2023-03-24T10:56:39.380Z,14.65
2023-03-24T10:59:46.320Z,18.92
2023-03-24T11:02:13.578Z,18.95
2023-03-24T11:04:44.579Z,13.02
2023-03-24T11:07:18.256Z,13.18
2023-03-24T11:10:10.751Z,15.75
2023-03-24T11:12:43.769Z,14.33
2023-03-24T11:15:22.752Z,14.75
2023-03-24T11:18:11.189Z,15.85
2023-03-24T11:20:41.419Z,12.50
2023-03-24T11:23:31.268Z,16.13
2023-03-24T11:26:18.425Z,14.57
2023-03-24T11:28:54.316Z,16.02
2023-03-24T11:31:30.541Z,18.35
2023-03-24T11:34:08.548Z,19.27
2023-03-24T11:36:49.304Z,10.95
2023-03-24T11:39:28.114Z,14.63
2023-03-24T11:42:16.360Z,12.60
2023-03-24T11:44:49.516Z,15.48
2023-03-24T11:47:21.736Z,11.68
2023-03-24T11:50:04.965Z,13.43
2023-03-24T11:52:44.296Z,18.35
2023-03-24T11:55:24.440Z,11.27
2023-03-24T11:58:05.891Z,14.27
2023-03-24T12:00:57.803Z,14.77
2023-03-24T12:03:50.235Z,11.55
2023-03-24T12:06:26.748Z,17.03
2023-03-24T12:09:24.466Z,16.42
2023-03-24T12:12:25.862Z,15.15
2023-03-24T12:14:58.967Z,11.98
2023-03-24T12:17:42.893Z,19.30
2023-03-24T12:20:30.745Z,15.57
2023-03-24T12:23:07.310Z,13.00
2023-03-24T12:26:04.041Z,13.02
2023-03-24T12:29:20.230Z,12.88
2023-03-24T12:32:09.261Z,13.52
2023-03-24T12:34:45.986Z,13.18
2023-03-24T12:37:38.593Z,14.63
2023-03-24T12:40:11.668Z,11.43
2023-03-24T12:42:47.117Z,15.00
2023-03-24T12:45:49.118Z,9.52
2023-03-24T12:48:42.692Z,10.70
2023-03-24T12:51:53.060Z,14.52
2023-03-24T12:54:32.775Z,8.55
2023-03-24T12:57:04.482Z,19.40
2023-03-24T12:59:49.164Z,9.68
2023-03-24T13:03:09.069Z,12.40
2023-03-24T13:05:46.413Z,8.32
2023-03-24T13:08:29.418Z,10.57
2023-03-24T13:11:02.869Z,8.80
2023-03-24T13:13:40.405Z,15.32
2023-03-24T13:16:23.625Z,9.70
2023-03-24T13:18:56.800Z,10.20
2023-03-24T13:21:26.535Z,8.93
2023-03-24T13:24:15.121Z,9.15
2023-03-24T13:27:00.814Z,16.58
2023-03-24T13:29:49.712Z,14.43
2023-03-24T13:32:26.462Z,11.73
2023-03-24T13:35:07.336Z,12.02
2023-03-24T13:37:53.974Z,6.80
2023-03-24T13:40:25.613Z,11.48
2023-03-24T13:43:01.409Z,13.52
2023-03-24T13:45:51.976Z,12.63
2023-03-24T13:48:45.356Z,8.98
2023-03-24T13:51:31.851Z,11.40
2023-03-24T13:54:14.867Z,11.38
2023-03-24T13:57:24.345Z,8.60
2023-03-24T14:00:31.763Z,12.20
2023-03-24T14:03:06.262Z,10.90
2023-03-24T14:05:42.419Z,9.43
2023-03-24T14:08:11.334Z,10.73
2023-03-24T14:10:43.143Z,7.25
2023-03-24T14:13:13.612Z,14.45
2023-03-24T14:15:50.283Z,8.13
2023-03-24T14:18:24.187Z,11.90
2023-03-24T14:21:00.398Z,14.77
2023-03-24T14:24:03.058Z,14.05
2023-03-24T14:26:46.167Z,10.18
2023-03-24T14:32:20.562Z,10.55
2023-03-24T14:34:54.805Z,12.60
2023-03-24T14:37:23.537Z,13.65
2023-03-24T14:40:29.158Z,15.23
2023-03-24T14:43:08.187Z,12.27
2023-03-24T14:49:14.091Z,14.55
2023-03-24T14:52:20.029Z,13.50
2023-03-24T14:54:54.669Z,15.20
2023-03-24T14:58:03.359Z,14.20
2023-03-24T15:00:58.019Z,17.13
2023-03-24T15:04:17.681Z,15.93
2023-03-24T15:06:49.671Z,15.48
2023-03-24T15:15:00.965Z,17.33
2023-03-24T15:17:31.505Z,18.13
2023-03-24T15:20:11.683Z,18.45
2023-03-24T15:22:45.912Z,19.63
2023-03-24T15:25:21.511Z,21.67
2023-03-24T15:27:52.627Z,15.90
2023-03-24T15:30:35.024Z,21.65
2023-03-24T15:33:47.242Z,20.52
2023-03-24T15:36:25.716Z,21.63
2023-03-24T15:38:53.872Z,21.23
2023-03-24T15:41:23.167Z,17.95
2023-03-24T15:43:54.452Z,23.73
2023-03-24T15:46:44.370Z,18.05
2023-03-24T15:49:24.524Z,18.17
2023-03-24T15:52:01.907Z,22.20
2023-03-24T15:54:39.468Z,17.42
2023-03-24T15:57:14.901Z,16.02
2023-03-24T16:00:01.052Z,17.88
2023-03-24T16:02:29.866Z,23.45
2023-03-24T16:05:11.306Z,19.45
2023-03-24T16:07:42.928Z,16.02
2023-03-24T16:10:32.338Z,16.38
2023-03-24T16:13:19.532Z,14.18
2023-03-24T16:15:59.525Z,16.05
2023-03-24T16:18:37.357Z,17.30
2023-03-24T16:21:25.703Z,17.77
2023-03-24T16:23:54.450Z,16.08
2023-03-24T16:26:24.115Z,24.60
2023-03-24T16:28:52.807Z,17.90
2023-03-24T16:31:22.109Z,16.90
2023-03-24T16:33:51.161Z,18.60
2023-03-24T16:36:18.862Z,18.33
2023-03-24T16:38:51.722Z,16.90
2023-03-24T16:43:47.011Z,16.85
2023-03-24T16:46:16.284Z,20.95
2023-03-24T16:48:44.259Z,23.23
2023-03-24T16:51:14.006Z,17.88
2023-03-24T16:53:44.917Z,18.20
2023-03-24T16:56:19.608Z,18.80
2023-03-24T16:58:54.807Z,16.65
2023-03-24T17:01:47.945Z,20.13
2023-03-24T17:04:45.745Z,16.55
2023-03-24T17:07:15.618Z,18.63
2023-03-24T17:09:42.949Z,23.52
2023-03-24T17:12:10.497Z,17.02
2023-03-24T17:14:38.128Z,22.08
2023-03-24T17:17:11.337Z,18.25
2023-03-24T17:19:42.741Z,18.63
2023-03-24T17:22:13.605Z,24.48
2023-03-24T17:24:43.270Z,23.80
2023-03-24T17:27:21.336Z,15.32
2023-03-24T17:29:50.357Z,15.55
2023-03-24T17:32:19.933Z,22.98
2023-03-24T17:34:51.498Z,13.35
2023-03-24T17:37:27.993Z,15.63
2023-03-24T17:40:02.973Z,18.85
2023-03-24T17:42:40.343Z,16.83
2023-03-24T17:48:06.971Z,14.47
2023-03-24T17:50:39.494Z,12.95
2023-03-24T17:53:09.467Z,16.48
2023-03-24T17:55:36.879Z,12.13
2023-03-24T17:58:04.348Z,9.18
2023-03-24T18:00:31.642Z,12.10
2023-03-24T18:03:03.526Z,12.88
2023-03-24T18:05:31.061Z,13.35
2023-03-24T18:07:59.233Z,8.32
2023-03-24T18:10:27.844Z,7.85
2023-03-24T18:12:55.845Z,11.77
2023-03-24T18:15:25.989Z,11.93
2023-03-24T18:17:55.917Z,11.73
2023-03-24T18:20:23.300Z,11.25
2023-03-24T18:22:51.358Z,10.95
2023-03-24T18:25:19.151Z,10.10
2023-03-24T18:27:46.499Z,10.93
2023-03-24T18:30:14.385Z,13.52
2023-03-24T18:32:42.870Z,11.18
2023-03-24T18:35:17.041Z,18.65
2023-03-24T18:37:44.821Z,7.82
2023-03-24T18:40:12.674Z,14.23
2023-03-24T18:42:40.388Z,11.75
2023-03-24T18:45:08.273Z,13.02
2023-03-24T18:47:35.853Z,9.07
2023-03-24T18:50:03.610Z,12.60
2023-03-24T18:52:33.916Z,11.18
2023-03-24T18:55:02.765Z,10.45
2023-03-24T18:57:31.163Z,10.20
2023-03-24T18:59:58.461Z,8.85
2023-03-24T19:02:26.309Z,12.98
2023-03-24T19:04:54.758Z,9.38
2023-03-24T19:07:26.148Z,11.43
2023-03-24T19:09:54.686Z,12.68
2023-03-24T19:12:21.935Z,8.25
2023-03-24T19:14:49.703Z,9.45
2023-03-24T19:17:16.983Z,16.90
2023-03-24T19:19:44.357Z,14.90
2023-03-24T19:22:11.735Z,11.48
2023-03-24T19:24:39.006Z,11.63
2023-03-24T19:27:08.253Z,12.98
2023-03-24T19:29:35.758Z,8.40
2023-03-24T19:32:03.130Z,14.52
2023-03-24T19:34:31.023Z,8.18
2023-03-24T19:36:58.346Z,14.35
2023-03-24T19:39:26.531Z,16.80
2023-03-24T19:41:57.404Z,10.55
2023-03-24T19:44:24.875Z,14.32
2023-03-24T19:46:52.350Z,12.02
2023-03-24T19:49:21.382Z,11.23
2023-03-24T19:51:50.915Z,13.50
2023-03-24T19:54:19.433Z,12.30
2023-03-24T19:56:46.887Z,10.10
2023-03-24T19:59:14.197Z,10.05
2023-03-24T20:01:41.686Z,16.08
2023-03-24T20:04:10.289Z,14.82
2023-03-24T20:06:37.537Z,10.85
2023-03-24T20:09:05.182Z,11.18
2023-03-24T20:11:32.530Z,9.00
2023-03-24T20:13:59.923Z,14.80
2023-03-24T20:16:27.330Z,15.50
2023-03-24T20:18:54.822Z,11.25
2023-03-24T20:21:23.110Z,10.27
2023-03-24T20:23:51.444Z,20.17
2023-03-24T20:26:19.463Z,11.30
2023-03-24T20:28:48.176Z,10.20
2023-03-24T20:31:15.785Z,11.80
2023-03-24T20:33:43.270Z,14.63
2023-03-24T20:36:11.802Z,15.02
2023-03-24T20:38:39.281Z,13.23
2023-03-24T20:41:07.804Z,10.25
2023-03-24T20:43:37.507Z,16.05
2023-03-24T20:46:07.179Z,12.98
2023-03-24T20:48:34.949Z,12.23
2023-03-24T20:51:03.607Z,12.90
2023-03-24T20:53:35.829Z,13.23
2023-03-24T20:56:06.655Z,9.90
2023-03-24T20:58:35.702Z,15.18
2023-03-24T21:01:13.918Z,19.13
2023-03-24T21:03:41.844Z,15.43
2023-03-24T21:06:10.895Z,14.40
2023-03-24T21:08:38.695Z,16.58
2023-03-24T21:11:06.167Z,17.13
2023-03-24T21:16:08.918Z,15.15
2023-03-24T21:18:37.736Z,9.77
2023-03-24T21:21:12.594Z,13.88
2023-03-24T21:23:43.569Z,13.68
2023-03-24T21:26:15.284Z,18.02
2023-03-24T21:28:42.812Z,13.85
2023-03-24T21:31:14.905Z,17.92
2023-03-24T21:33:43.536Z,15.57
2023-03-24T21:36:12.479Z,15.82
2023-03-24T21:38:40.360Z,14.60
2023-03-24T21:41:08.092Z,15.30
2023-03-24T21:43:38.135Z,16.77
2023-03-24T21:46:05.860Z,11.13
2023-03-24T21:48:34.915Z,13.45
2023-03-24T21:51:04.182Z,17.67
2023-03-24T21:53:32.008Z,14.40
2023-03-24T21:56:08.657Z,14.10
2023-03-24T21:58:36.404Z,12.45
2023-03-24T22:01:09.907Z,11.57
2023-03-24T22:03:37.494Z,18.98
2023-03-24T22:06:29.270Z,14.05
2023-03-24T22:09:06.406Z,15.80
2023-03-24T22:11:35.159Z,20.23
2023-03-24T22:14:05.956Z,14.70
2023-03-24T22:16:34.604Z,10.57
2023-03-24T22:19:02.088Z,11.75
2023-03-24T22:21:35.045Z,11.57
2023-03-24T22:24:02.645Z,14.75
2023-03-24T22:26:30.613Z,14.15
2023-03-24T22:28:59.093Z,14.05
2023-03-24T22:31:29.273Z,17.33
2023-03-24T22:33:57.130Z,15.95
2023-03-24T22:36:24.489Z,21.13
2023-03-24T22:38:51.810Z,15.35
2023-03-24T22:41:19.104Z,17.15
2023-03-24T22:43:46.885Z,16.40
2023-03-24T22:46:14.278Z,17.42
2023-03-24T22:48:41.958Z,19.90
2023-03-24T22:51:16.983Z,21.55
2023-03-24T22:53:46.702Z,14.13
2023-03-24T22:56:15.452Z,21.10
2023-03-24T22:58:42.911Z,17.55
2023-03-24T23:01:10.628Z,21.95
2023-03-24T23:03:40.660Z,21.40
2023-03-24T23:06:09.375Z,20.20
2023-03-24T23:08:37.568Z,20.00
2023-03-24T23:11:06.670Z,15.68
2023-03-24T23:13:36.778Z,20.70
2023-03-24T23:16:04.500Z,15.93
2023-03-24T23:18:34.981Z,20.42
2023-03-24T23:21:04.743Z,19.70
2023-03-24T23:23:32.074Z,17.85
2023-03-24T23:25:59.414Z,17.17
2023-03-24T23:28:26.750Z,21.67
2023-03-24T23:30:54.637Z,22.08
2023-03-24T23:33:22.364Z,21.92
2023-03-24T23:35:59.419Z,22.88
2023-03-24T23:38:27.413Z,14.55
2023-03-24T23:40:54.876Z,24.23
2023-03-24T23:43:22.456Z,19.42
2023-03-24T23:45:50.059Z,20.67
2023-03-24T23:48:17.557Z,22.13
2023-03-24T23:50:49.365Z,20.45
2023-03-24T23:53:16.649Z,28.98
2023-03-24T23:55:43.868Z,21.40
2023-03-24T23:58:11.175Z,17.00
